createdAt,value
2018-04-13T00:00:22.546Z,100092.13
2018-04-13T00:03:27.749Z,100090.36
2018-04-13T00:06:33.000Z,100082.70
2018-04-13T00:09:38.263Z,100070.74
2018-04-13T00:12:44.241Z,100068.64
2018-04-13T00:15:49.498Z,100063.11
2018-04-13T00:18:54.758Z,100065.13
2018-04-13T00:22:00.508Z,100067.31
2018-04-13T00:25:06.369Z,100061.37
2018-04-13T00:28:12.367Z,100058.41
2018-04-13T00:31:17.825Z,100056.72
2018-04-13T00:34:23.465Z,100055.37
2018-04-13T00:37:28.734Z,100051.16
2018-04-13T00:40:34.821Z,100048.56
2018-04-13T00:43:40.842Z,100050.29
2018-04-13T00:46:47.037Z,100044.73
2018-04-13T00:49:53.174Z,100040.44
2018-04-13T00:53:10.239Z,100039.98
2018-04-13T00:56:15.585Z,100046.83
2018-04-13T00:59:20.806Z,100033.59
2018-04-13T01:02:26.036Z,100037.84
2018-04-13T01:05:31.242Z,100039.48
2018-04-13T01:08:37.405Z,100039.48
2018-04-13T01:11:43.685Z,100047.53
2018-04-13T01:14:49.318Z,100045.20
2018-04-13T01:17:54.543Z,100048.70
2018-04-13T01:20:59.757Z,100047.88
2018-04-13T01:24:05.993Z,100057.20
2018-04-13T01:27:11.538Z,100056.78
2018-04-13T01:30:16.758Z,100060.50
2018-04-13T01:33:22.638Z,100050.73
2018-04-13T01:36:28.779Z,100047.72
2018-04-13T01:39:34.421Z,100041.70
2018-04-13T01:42:39.634Z,100043.39
2018-04-13T01:45:44.569Z,100047.19
2018-04-13T01:48:49.812Z,100048.46
2018-04-13T01:51:55.005Z,100044.17
2018-04-13T01:55:00.766Z,100048.34
2018-04-13T01:58:05.698Z,100041.91
2018-04-13T02:01:10.646Z,100037.25
2018-04-13T02:04:15.862Z,100029.12
2018-04-13T02:07:21.825Z,100023.56
2018-04-13T02:10:27.975Z,100020.55
2018-04-13T02:13:33.893Z,100013.70
2018-04-13T02:16:40.013Z,100019.20
2018-04-13T02:19:45.002Z,100019.95
2018-04-13T02:22:51.126Z,100013.14
2018-04-13T02:25:56.841Z,100007.53
2018-04-13T02:29:03.065Z,100010.50
2018-04-13T02:32:08.115Z,100001.47
2018-04-13T02:35:13.396Z,99993.38
2018-04-13T02:38:18.674Z,99991.57
2018-04-13T02:41:23.947Z,99990.66
2018-04-13T02:44:29.227Z,99997.02
2018-04-13T02:47:35.422Z,99996.16
2018-04-13T02:50:41.514Z,100007.66
2018-04-13T02:53:48.642Z,100002.09
2018-04-13T02:56:54.496Z,100003.74
2018-04-13T03:00:00.509Z,100011.34
2018-04-13T03:03:07.237Z,100004.98
2018-04-13T03:06:13.453Z,100004.03
2018-04-13T03:09:18.723Z,99991.70
2018-04-13T03:12:24.922Z,100001.94
2018-04-13T03:15:31.586Z,99995.45
2018-04-13T03:18:36.858Z,100015.51
2018-04-13T03:21:42.141Z,100004.45
2018-04-13T03:24:48.333Z,100009.61
2018-04-13T03:27:53.609Z,100024.05
2018-04-13T03:30:58.929Z,100015.92
2018-04-13T03:34:05.134Z,100018.48
2018-04-13T03:37:10.413Z,100021.82
2018-04-13T03:40:16.125Z,100027.84
2018-04-13T03:43:21.721Z,100031.27
2018-04-13T03:46:27.006Z,100031.27
2018-04-13T03:49:32.282Z,100023.22
2018-04-13T03:52:38.489Z,100010.84
2018-04-13T03:55:44.681Z,100020.20
2018-04-13T03:58:50.762Z,100018.93
2018-04-13T04:01:56.038Z,100021.90
2018-04-13T04:05:01.366Z,100022.31
2018-04-13T04:08:06.642Z,100019.80
2018-04-13T04:11:12.860Z,100035.02
2018-04-13T04:14:18.137Z,100028.67
2018-04-13T04:17:23.426Z,100028.70
2018-04-13T04:20:39.945Z,100037.70
2018-04-13T04:23:57.585Z,100027.39
2018-04-13T04:27:03.485Z,100039.80
2018-04-13T04:30:09.489Z,100050.90
2018-04-13T04:33:15.686Z,100050.00
2018-04-13T04:36:21.904Z,100053.45
2018-04-13T04:39:26.909Z,100053.42
2018-04-13T04:42:32.232Z,100057.17
2018-04-13T04:45:38.426Z,100062.33
2018-04-13T04:48:43.753Z,100061.47
2018-04-13T04:51:49.302Z,100074.25
2018-04-13T04:54:55.398Z,100069.12
2018-04-13T04:58:01.387Z,100067.32
2018-04-13T05:01:07.277Z,100066.04
2018-04-13T05:04:12.550Z,100066.41
2018-04-13T05:07:18.744Z,100063.81
2018-04-13T05:10:24.949Z,100070.63
2018-04-13T05:13:30.931Z,100068.44
2018-04-13T05:16:35.880Z,100070.95
2018-04-13T05:19:41.155Z,100069.23
2018-04-13T05:22:47.043Z,100069.03
2018-04-13T05:25:52.337Z,100076.30
2018-04-13T05:28:58.242Z,100069.86
2018-04-13T05:32:03.533Z,100067.30
2018-04-13T05:35:08.812Z,100073.65
2018-04-13T05:38:14.125Z,100091.97
2018-04-13T05:41:19.722Z,100097.33
2018-04-13T05:44:25.938Z,100102.94
2018-04-13T05:47:31.228Z,100102.45
2018-04-13T05:50:36.511Z,100098.57
2018-04-13T05:53:42.733Z,100082.69
2018-04-13T05:56:48.742Z,100092.02
2018-04-13T05:59:54.821Z,100099.20
2018-04-13T06:03:00.926Z,100096.59
2018-04-13T06:06:07.054Z,100104.11
2018-04-13T06:09:13.425Z,100098.84
2018-04-13T06:12:19.550Z,100102.93
2018-04-13T06:15:25.622Z,100105.44
2018-04-13T06:18:31.486Z,100113.41
2018-04-13T06:21:37.678Z,100114.16
2018-04-13T06:24:43.692Z,100105.53
2018-04-13T06:27:49.794Z,100115.56
2018-04-13T06:30:55.886Z,100112.02
2018-04-13T06:34:01.161Z,100114.05
2018-04-13T06:37:09.054Z,100121.11
2018-04-13T06:40:14.953Z,100125.69
2018-04-13T06:43:21.246Z,100128.50
2018-04-13T06:46:27.040Z,100126.23
2018-04-13T06:49:32.338Z,100123.55
2018-04-13T06:52:38.535Z,100116.19
2018-04-13T06:55:43.822Z,100122.47
2018-04-13T06:58:49.097Z,100121.07
2018-04-13T07:01:54.381Z,100128.13
2018-04-13T07:05:00.166Z,100120.28
2018-04-13T07:08:05.442Z,100126.10
2018-04-13T07:11:10.715Z,100128.00
2018-04-13T07:14:16.919Z,100130.80
2018-04-13T07:17:22.229Z,100135.27
2018-04-13T07:20:27.527Z,100134.65
2018-04-13T07:23:32.799Z,100136.08
2018-04-13T07:26:38.108Z,100136.73
2018-04-13T07:29:43.385Z,100146.37
2018-04-13T07:32:49.581Z,100146.11
2018-04-13T07:35:55.711Z,100151.52
2018-04-13T07:39:01.883Z,100150.48
2018-04-13T07:42:07.706Z,100148.56
2018-04-13T07:45:12.993Z,100141.49
2018-04-13T07:48:18.268Z,100143.80
2018-04-13T07:51:24.613Z,100145.60
2018-04-13T07:54:30.759Z,100148.77
2018-04-13T07:57:36.665Z,100140.36
2018-04-13T08:00:43.759Z,100142.20
2018-04-13T08:03:49.549Z,100131.18
2018-04-13T08:06:55.558Z,100137.69
2018-04-13T08:10:01.742Z,100146.26
2018-04-13T08:13:07.939Z,100149.30
2018-04-13T08:16:13.680Z,100140.87
2018-04-13T08:19:19.859Z,100141.34
2018-04-13T08:22:25.153Z,100142.20
2018-04-13T08:25:30.151Z,100145.27
2018-04-13T08:28:36.973Z,100135.37
2018-04-13T08:31:42.926Z,100137.05
2018-04-13T08:34:48.209Z,100134.84
2018-04-13T08:37:53.514Z,100134.32
2018-04-13T08:40:58.792Z,100139.41
2018-04-13T08:44:04.089Z,100142.33
2018-04-13T08:47:09.394Z,100142.30
2018-04-13T08:50:15.409Z,100141.45
2018-04-13T08:53:21.643Z,100146.95
2018-04-13T08:56:26.925Z,100149.94
2018-04-13T08:59:32.233Z,100151.56
2018-04-13T09:02:38.445Z,100151.43
2018-04-13T09:05:43.507Z,100152.14
2018-04-13T09:08:48.790Z,100154.63
2018-04-13T09:11:54.749Z,100159.16
2018-04-13T09:15:00.034Z,100166.33
2018-04-13T09:18:06.095Z,100164.16
2018-04-13T09:21:11.879Z,100170.84
2018-04-13T09:24:17.889Z,100162.27
2018-04-13T09:27:23.885Z,100176.72
2018-04-13T09:30:30.088Z,100176.20
2018-04-13T09:33:35.049Z,100179.98
2018-04-13T09:36:40.339Z,100185.11
2018-04-13T09:39:45.647Z,100191.48
2018-04-13T09:42:50.927Z,100193.25
2018-04-13T09:45:56.219Z,100191.99
2018-04-13T09:49:01.518Z,100197.08
2018-04-13T09:52:07.634Z,100188.94
2018-04-13T09:55:13.642Z,100193.40
2018-04-13T09:58:25.297Z,100196.08
2018-04-13T10:01:40.643Z,100209.16
2018-04-13T10:04:56.274Z,100217.84
2018-04-13T10:08:01.628Z,100227.07
2018-04-13T10:11:12.245Z,100222.89
2018-04-13T10:14:23.054Z,100218.85
2018-04-13T10:17:28.940Z,100224.52
2018-04-13T10:20:40.673Z,100223.48
2018-04-13T10:23:46.874Z,100227.27
2018-04-13T10:26:53.073Z,100233.62
2018-04-13T10:29:59.007Z,100236.97
2018-04-13T10:33:04.286Z,100241.60
2018-04-13T10:36:09.584Z,100242.33
2018-04-13T10:39:15.797Z,100247.84
2018-04-13T10:42:21.819Z,100255.93
2018-04-13T10:45:27.713Z,100263.95
2018-04-13T10:48:33.573Z,100265.67
2018-04-13T10:51:38.870Z,100269.41
2018-04-13T10:54:44.154Z,100260.09
2018-04-13T10:57:50.065Z,100257.11
2018-04-13T11:00:56.186Z,100246.14
2018-04-13T11:04:02.195Z,100232.12
2018-04-13T11:07:08.301Z,100206.97
2018-04-13T11:10:14.532Z,100200.63
2018-04-13T11:13:21.699Z,100203.27
2018-04-13T11:16:27.497Z,100209.05
2018-04-13T11:19:32.791Z,100214.67
2018-04-13T11:22:38.081Z,100215.91
2018-04-13T11:25:43.386Z,100207.41
2018-04-13T11:28:49.582Z,100200.19
2018-04-13T11:31:54.877Z,100197.09
2018-04-13T11:35:00.163Z,100188.38
2018-04-13T11:38:06.254Z,100193.77
2018-04-13T11:41:11.553Z,100197.78
2018-04-13T11:44:16.837Z,100197.73
2018-04-13T11:47:22.941Z,100199.22
2018-04-13T11:50:29.065Z,100196.23
2018-04-13T11:53:35.078Z,100192.67
2018-04-13T11:56:41.188Z,100200.58
2018-04-13T11:59:47.281Z,100212.80
2018-04-13T12:02:52.885Z,100224.89
2018-04-13T12:05:58.154Z,100239.46
2018-04-13T12:09:03.223Z,100236.36
2018-04-13T12:12:08.230Z,100232.86
2018-04-13T12:15:13.525Z,100232.45
2018-04-13T12:18:19.777Z,100236.20
2018-04-13T12:21:25.075Z,100239.97
2018-04-13T12:24:30.366Z,100247.13
2018-04-13T12:27:36.259Z,100249.97
2018-04-13T12:30:42.366Z,100249.52
2018-04-13T12:33:47.193Z,100266.16
2018-04-13T12:36:53.401Z,100266.88
2018-04-13T12:39:59.328Z,100265.85
2018-04-13T12:43:04.609Z,100267.70
2018-04-13T12:46:10.444Z,100268.34
2018-04-13T12:49:15.734Z,100267.09
2018-04-13T12:52:21.007Z,100264.23
2018-04-13T12:55:26.330Z,100268.70
2018-04-13T12:58:31.789Z,100268.39
2018-04-13T13:01:37.821Z,100264.91
2018-04-13T13:04:43.933Z,100263.81
2018-04-13T13:07:50.134Z,100254.21
2018-04-13T13:10:55.407Z,100267.72
2018-04-13T13:14:01.630Z,100262.16
2018-04-13T13:17:06.643Z,100263.45
2018-04-13T13:20:12.220Z,100264.52
2018-04-13T13:23:18.421Z,100262.52
2018-04-13T13:26:23.457Z,100258.91
2018-04-13T13:29:28.759Z,100263.33
2018-04-13T13:32:34.052Z,100253.19
2018-04-13T13:35:39.352Z,100255.42
2018-04-13T13:38:45.441Z,100257.59
2018-04-13T13:41:51.650Z,100268.66
2018-04-13T13:44:57.618Z,100258.36
2018-04-13T13:48:02.909Z,100262.45
2018-04-13T13:51:08.202Z,100274.78
2018-04-13T13:54:13.505Z,100280.05
2018-04-13T13:57:19.246Z,100289.41
2018-04-13T14:00:25.053Z,100281.59
2018-04-13T14:03:30.334Z,100271.24
2018-04-13T14:06:35.645Z,100283.50
2018-04-13T14:09:40.934Z,100277.84
2018-04-13T14:12:46.217Z,100276.77
2018-04-13T14:15:51.511Z,100274.06
2018-04-13T14:18:56.793Z,100264.95
2018-04-13T14:22:02.085Z,100271.09
2018-04-13T14:25:07.378Z,100265.70
2018-04-13T14:28:13.504Z,100274.58
2018-04-13T14:31:18.795Z,100261.37
2018-04-13T14:34:24.994Z,100252.64
2018-04-13T14:37:31.329Z,100243.52
2018-04-13T14:40:36.615Z,100242.80
2018-04-13T14:43:42.943Z,100244.66
2018-04-13T14:46:47.942Z,100252.55
2018-04-13T14:49:53.961Z,100249.14
2018-04-13T14:52:59.545Z,100247.13
2018-04-13T14:56:05.741Z,100251.52
2018-04-13T14:59:12.594Z,100250.64
2018-04-13T15:02:17.882Z,100243.68
2018-04-13T15:05:23.312Z,100247.08
2018-04-13T15:08:28.837Z,100230.61
2018-04-13T15:11:33.836Z,100238.62
2018-04-13T15:14:41.134Z,100232.84
2018-04-13T15:17:46.126Z,100230.27
2018-04-13T15:20:51.967Z,100224.27
2018-04-13T15:23:57.001Z,100226.36
2018-04-13T15:27:02.306Z,100230.79
2018-04-13T15:30:07.588Z,100225.62
2018-04-13T15:33:12.874Z,100221.24
2018-04-13T15:36:17.880Z,100220.16
2018-04-13T15:39:22.897Z,100225.72
2018-04-13T15:42:27.900Z,100218.91
2018-04-13T15:45:33.795Z,100216.39
2018-04-13T15:48:39.309Z,100222.17
2018-04-13T15:51:44.505Z,100217.64
2018-04-13T15:54:49.519Z,100223.11
2018-04-13T15:57:54.525Z,100230.36
2018-04-13T16:00:59.546Z,100230.32
2018-04-13T16:04:04.231Z,100221.92
2018-04-13T16:07:09.966Z,100228.27
2018-04-13T16:10:15.756Z,100224.66
2018-04-13T16:13:21.502Z,100230.03
2018-04-13T16:16:26.517Z,100230.80
2018-04-13T16:19:32.139Z,100233.52
2018-04-13T16:22:37.977Z,100243.02
2018-04-13T16:25:42.994Z,100239.00
2018-04-13T16:28:48.014Z,100251.60
2018-04-13T16:31:53.052Z,100248.05
2018-04-13T16:34:58.062Z,100251.62
2018-04-13T16:38:03.329Z,100260.95
2018-04-13T16:41:09.253Z,100265.33
2018-04-13T16:44:14.283Z,100263.78
2018-04-13T16:47:19.285Z,100254.47
2018-04-13T16:50:24.799Z,100255.45
2018-04-13T16:53:30.719Z,100258.48
2018-04-13T16:56:35.732Z,100261.50
2018-04-13T16:59:41.742Z,100257.98
2018-04-13T17:02:47.363Z,100259.31
2018-04-13T17:05:53.226Z,100261.94
2018-04-13T17:08:59.055Z,100262.12
2018-04-13T17:12:04.077Z,100262.28
2018-04-13T17:15:09.090Z,100264.34
2018-04-13T17:18:15.548Z,100276.30
2018-04-13T17:21:20.550Z,100265.67
2018-04-13T17:24:26.216Z,100261.27
2018-04-13T17:27:32.149Z,100267.93
2018-04-13T17:30:38.165Z,100257.21
2018-04-13T17:33:43.686Z,100253.83
2018-04-13T17:36:49.635Z,100263.24
2018-04-13T17:39:55.550Z,100252.20
2018-04-13T17:43:01.501Z,100246.80
2018-04-13T17:46:06.698Z,100242.77
2018-04-13T17:49:11.709Z,100245.16
2018-04-13T17:52:16.709Z,100255.88
2018-04-13T17:55:22.643Z,100256.02
2018-04-13T17:58:27.654Z,100253.95
2018-04-13T18:01:33.203Z,100269.10
2018-04-13T18:04:39.149Z,100283.12
2018-04-13T18:07:44.973Z,100280.68
2018-04-13T18:10:51.454Z,100288.84
2018-04-13T18:13:56.228Z,100280.63
2018-04-13T18:17:01.779Z,100295.88
2018-04-13T18:20:06.798Z,100297.97
2018-04-13T18:23:11.582Z,100329.26
2018-04-13T18:26:18.206Z,100356.59
2018-04-13T18:29:23.714Z,100334.23
2018-04-13T18:32:29.750Z,100350.16
2018-04-13T18:35:35.283Z,100337.70
2018-04-13T18:38:40.281Z,100334.65
2018-04-13T18:41:45.462Z,100331.46
2018-04-13T18:44:50.461Z,100325.41
2018-04-13T18:47:55.759Z,100326.91
2018-04-13T18:51:00.771Z,100323.27
2018-04-13T18:54:05.770Z,100327.84
2018-04-13T18:57:11.602Z,100333.42
2018-04-13T19:00:16.598Z,100339.88
2018-04-13T19:03:21.612Z,100344.13
2018-04-13T19:06:27.529Z,100334.20
2018-04-13T19:09:32.548Z,100338.31
2018-04-13T19:12:37.561Z,100335.23
2018-04-13T19:15:42.982Z,100337.02
2018-04-13T19:18:47.998Z,100334.36
2018-04-13T19:21:53.275Z,100348.30
2018-04-13T19:24:58.285Z,100346.08
2018-04-13T19:28:04.482Z,100360.09
2018-04-13T19:31:09.495Z,100366.67
2018-04-13T19:34:15.115Z,100349.81
2018-04-13T19:37:21.307Z,100351.46
2018-04-13T19:40:26.310Z,100328.73
2018-04-13T19:43:32.242Z,100335.73
2018-04-13T19:46:37.243Z,100341.75
2018-04-13T19:49:43.788Z,100354.66
2018-04-13T19:52:48.793Z,100360.75
2018-04-13T19:55:54.804Z,100359.58
2018-04-13T19:58:59.820Z,100352.88
2018-04-13T20:02:04.815Z,100359.80
2018-04-13T20:05:10.430Z,100356.22
2018-04-13T20:08:15.454Z,100363.94
2018-04-13T20:11:20.455Z,100364.12
2018-04-13T20:14:25.492Z,100369.13
2018-04-13T20:17:30.501Z,100358.94
2018-04-13T20:20:36.150Z,100354.14
2018-04-13T20:23:41.157Z,100345.36
2018-04-13T20:26:46.163Z,100341.64
2018-04-13T20:29:50.969Z,100346.11
2018-04-13T20:32:56.695Z,100343.48
2018-04-13T20:36:03.397Z,100351.36
2018-04-13T20:39:08.935Z,100359.52
2018-04-13T20:42:14.758Z,100356.14
2018-04-13T20:45:19.757Z,100365.80
2018-04-13T20:48:24.759Z,100358.91
2018-04-13T20:51:30.486Z,100369.82
2018-04-13T20:54:35.521Z,100368.61
2018-04-13T20:57:41.527Z,100368.55
2018-04-13T21:00:47.483Z,100368.05
2018-04-13T21:03:52.473Z,100380.88
2018-04-13T21:06:58.103Z,100371.86
2018-04-13T21:10:04.821Z,100372.80
2018-04-13T21:13:10.110Z,100373.31
2018-04-13T21:16:15.121Z,100362.95
2018-04-13T21:19:20.120Z,100366.16
2018-04-13T21:22:25.742Z,100368.27
2018-04-13T21:25:30.770Z,100369.17
2018-04-13T21:28:36.786Z,100373.59
2018-04-13T21:31:43.217Z,100362.37
2018-04-13T21:34:49.223Z,100365.65
2018-04-13T21:37:54.750Z,100371.04
2018-04-13T21:40:59.758Z,100362.61
2018-04-13T21:44:04.753Z,100370.10
2018-04-13T21:47:09.754Z,100370.03
2018-04-13T21:50:15.114Z,100381.05
2018-04-13T21:53:20.129Z,100373.11
2018-04-13T21:56:26.068Z,100374.55
2018-04-13T21:59:32.073Z,100384.78
2018-04-13T22:02:37.589Z,100383.63
2018-04-13T22:05:43.522Z,100381.25
2018-04-13T22:08:48.528Z,100379.55
2018-04-13T22:11:55.092Z,100384.83
2018-04-13T22:15:00.086Z,100382.69
2018-04-13T22:18:04.857Z,100392.34
2018-04-13T22:21:10.670Z,100398.38
2018-04-13T22:24:15.672Z,100397.23
2018-04-13T22:27:20.674Z,100390.02
2018-04-13T22:30:25.671Z,100383.38
2018-04-13T22:33:30.670Z,100383.58
2018-04-13T22:36:36.389Z,100411.77
2018-04-13T22:39:41.397Z,100415.19
2018-04-13T22:42:46.690Z,100419.15
2018-04-13T22:45:51.986Z,100416.18
2018-04-13T22:48:57.258Z,100420.08
2018-04-13T22:52:03.370Z,100434.44
2018-04-13T22:55:09.222Z,100437.15
2018-04-13T22:58:15.121Z,100443.08
2018-04-13T23:01:20.118Z,100446.95
2018-04-13T23:04:25.949Z,100446.75
2018-04-13T23:07:32.130Z,100448.11
2018-04-13T23:10:37.941Z,100452.42
2018-04-13T23:13:43.833Z,100456.14
2018-04-13T23:16:50.043Z,100462.08
2018-04-13T23:19:55.330Z,100464.59
2018-04-13T23:23:00.602Z,100458.60
2018-04-13T23:26:05.889Z,100460.30
2018-04-13T23:29:11.805Z,100464.19
2018-04-13T23:32:17.090Z,100460.09
2018-04-13T23:35:22.368Z,100468.19
2018-04-13T23:38:27.442Z,100483.53
2018-04-13T23:41:33.332Z,100503.19
2018-04-13T23:44:38.598Z,100518.00
2018-04-13T23:47:43.888Z,100524.85
2018-04-13T23:50:49.150Z,100528.86
2018-04-13T23:53:55.433Z,100512.09
2018-04-13T23:57:01.271Z,100513.64
